sensor_id;sensor_type;location;lat;lon;timestamp;P1;durP1;ratioP1;P2;durP2;ratioP2
34403;SDS011;23116;47.660;9.126;2023-02-08T00:00:20;8.38;;;5.95;;
34403;SDS011;23116;47.660;9.126;2023-02-08T00:03:08;9.23;;;6.43;;
34403;SDS011;23116;47.660;9.126;2023-02-08T00:05:55;7.80;;;5.90;;
34403;SDS011;23116;47.660;9.126;2023-02-08T00:08:42;8.52;;;6.20;;
34403;SDS011;23116;47.660;9.126;2023-02-08T00:11:30;10.80;;;7.05;;
34403;SDS011;23116;47.660;9.126;2023-02-08T00:14:17;10.55;;;7.68;;
34403;SDS011;23116;47.660;9.126;2023-02-08T00:17:04;10.98;;;7.05;;
34403;SDS011;23116;47.660;9.126;2023-02-08T00:19:50;9.15;;;6.35;;
34403;SDS011;23116;47.660;9.126;2023-02-08T00:22:37;8.30;;;6.30;;
34403;SDS011;23116;47.660;9.126;2023-02-08T00:25:24;9.00;;;6.50;;
34403;SDS011;23116;47.660;9.126;2023-02-08T00:28:12;7.93;;;6.25;;
34403;SDS011;23116;47.660;9.126;2023-02-08T00:31:01;9.20;;;5.80;;
34403;SDS011;23116;47.660;9.126;2023-02-08T00:33:47;8.88;;;6.53;;
34403;SDS011;23116;47.660;9.126;2023-02-08T00:36:34;8.88;;;6.60;;
34403;SDS011;23116;47.660;9.126;2023-02-08T00:39:21;9.02;;;6.38;;
34403;SDS011;23116;47.660;9.126;2023-02-08T00:42:08;9.50;;;5.32;;
34403;SDS011;23116;47.660;9.126;2023-02-08T00:44:55;9.70;;;6.88;;
34403;SDS011;23116;47.660;9.126;2023-02-08T00:47:42;7.78;;;6.05;;
34403;SDS011;23116;47.660;9.126;2023-02-08T00:50:30;8.85;;;5.72;;
34403;SDS011;23116;47.660;9.126;2023-02-08T00:53:17;7.43;;;5.70;;
34403;SDS011;23116;47.660;9.126;2023-02-08T00:56:04;6.97;;;5.68;;
34403;SDS011;23116;47.660;9.126;2023-02-08T00:58:52;10.20;;;7.10;;
34403;SDS011;23116;47.660;9.126;2023-02-08T01:01:39;8.93;;;6.90;;
34403;SDS011;23116;47.660;9.126;2023-02-08T01:04:27;11.30;;;7.05;;
34403;SDS011;23116;47.660;9.126;2023-02-08T01:07:13;10.43;;;8.27;;
34403;SDS011;23116;47.660;9.126;2023-02-08T01:10:00;9.65;;;7.05;;
34403;SDS011;23116;47.660;9.126;2023-02-08T01:12:48;9.30;;;6.53;;
34403;SDS011;23116;47.660;9.126;2023-02-08T01:15:35;9.18;;;6.95;;
34403;SDS011;23116;47.660;9.126;2023-02-08T01:18:22;8.70;;;7.05;;
34403;SDS011;23116;47.660;9.126;2023-02-08T01:21:10;9.18;;;6.95;;
34403;SDS011;23116;47.660;9.126;2023-02-08T01:23:59;11.45;;;8.00;;
34403;SDS011;23116;47.660;9.126;2023-02-08T01:26:47;9.30;;;7.57;;
34403;SDS011;23116;47.660;9.126;2023-02-08T01:29:33;8.75;;;6.70;;
34403;SDS011;23116;47.660;9.126;2023-02-08T01:32:20;9.52;;;7.53;;
34403;SDS011;23116;47.660;9.126;2023-02-08T01:35:07;9.35;;;7.20;;
34403;SDS011;23116;47.660;9.126;2023-02-08T01:37:54;10.38;;;7.10;;
34403;SDS011;23116;47.660;9.126;2023-02-08T01:40:41;11.18;;;7.75;;
34403;SDS011;23116;47.660;9.126;2023-02-08T01:43:30;10.75;;;7.65;;
34403;SDS011;23116;47.660;9.126;2023-02-08T01:46:51;9.65;;;6.88;;
34403;SDS011;23116;47.660;9.126;2023-02-08T01:49:38;10.13;;;7.32;;
34403;SDS011;23116;47.660;9.126;2023-02-08T01:52:25;9.38;;;6.93;;
34403;SDS011;23116;47.660;9.126;2023-02-08T01:55:15;8.93;;;6.82;;
34403;SDS011;23116;47.660;9.126;2023-02-08T01:58:25;12.50;;;8.20;;
34403;SDS011;23116;47.660;9.126;2023-02-08T02:01:15;11.43;;;7.47;;
34403;SDS011;23116;47.660;9.126;2023-02-08T02:04:02;9.73;;;7.20;;
34403;SDS011;23116;47.660;9.126;2023-02-08T02:06:54;11.50;;;7.05;;
34403;SDS011;23116;47.660;9.126;2023-02-08T02:09:44;9.02;;;6.40;;
34403;SDS011;23116;47.660;9.126;2023-02-08T02:13:06;7.75;;;6.15;;
34403;SDS011;23116;47.660;9.126;2023-02-08T02:16:07;10.15;;;7.43;;
34403;SDS011;23116;47.660;9.126;2023-02-08T02:18:54;9.65;;;7.15;;
34403;SDS011;23116;47.660;9.126;2023-02-08T02:21:55;8.77;;;6.95;;
34403;SDS011;23116;47.660;9.126;2023-02-08T02:38:21;9.35;;;6.82;;
34403;SDS011;23116;47.660;9.126;2023-02-08T02:48:35;9.35;;;6.70;;
34403;SDS011;23116;47.660;9.126;2023-02-08T02:54:56;11.35;;;7.30;;
34403;SDS011;23116;47.660;9.126;2023-02-08T02:57:49;9.55;;;6.45;;
34403;SDS011;23116;47.660;9.126;2023-02-08T03:00:39;10.60;;;6.88;;
34403;SDS011;23116;47.660;9.126;2023-02-08T03:03:27;9.30;;;6.78;;
34403;SDS011;23116;47.660;9.126;2023-02-08T03:06:24;7.95;;;6.30;;
34403;SDS011;23116;47.660;9.126;2023-02-08T03:16:19;8.30;;;6.22;;
34403;SDS011;23116;47.660;9.126;2023-02-08T03:28:59;8.38;;;6.15;;
34403;SDS011;23116;47.660;9.126;2023-02-08T03:35:47;7.68;;;5.60;;
34403;SDS011;23116;47.660;9.126;2023-02-08T03:38:43;7.78;;;6.05;;
34403;SDS011;23116;47.660;9.126;2023-02-08T03:41:32;9.25;;;6.88;;
34403;SDS011;23116;47.660;9.126;2023-02-08T03:44:25;9.15;;;7.53;;
34403;SDS011;23116;47.660;9.126;2023-02-08T03:47:26;8.00;;;6.18;;
34403;SDS011;23116;47.660;9.126;2023-02-08T03:50:18;8.75;;;6.32;;
34403;SDS011;23116;47.660;9.126;2023-02-08T03:53:06;9.00;;;6.60;;
34403;SDS011;23116;47.660;9.126;2023-02-08T03:55:57;7.50;;;5.90;;
34403;SDS011;23116;47.660;9.126;2023-02-08T04:01:41;8.40;;;5.90;;
34403;SDS011;23116;47.660;9.126;2023-02-08T04:07:32;9.73;;;6.38;;
34403;SDS011;23116;47.660;9.126;2023-02-08T04:10:19;8.40;;;6.80;;
34403;SDS011;23116;47.660;9.126;2023-02-08T04:13:06;8.75;;;5.97;;
34403;SDS011;23116;47.660;9.126;2023-02-08T04:15:52;9.13;;;6.68;;
34403;SDS011;23116;47.660;9.126;2023-02-08T04:18:39;10.73;;;7.93;;
34403;SDS011;23116;47.660;9.126;2023-02-08T04:21:26;9.55;;;6.90;;
34403;SDS011;23116;47.660;9.126;2023-02-08T04:24:13;9.20;;;7.28;;
34403;SDS011;23116;47.660;9.126;2023-02-08T04:27:00;9.57;;;6.82;;
34403;SDS011;23116;47.660;9.126;2023-02-08T04:29:47;10.38;;;6.53;;
34403;SDS011;23116;47.660;9.126;2023-02-08T04:32:33;9.68;;;7.25;;
34403;SDS011;23116;47.660;9.126;2023-02-08T04:35:20;10.63;;;7.15;;
34403;SDS011;23116;47.660;9.126;2023-02-08T04:38:07;11.77;;;7.50;;
34403;SDS011;23116;47.660;9.126;2023-02-08T04:40:54;11.13;;;7.82;;
34403;SDS011;23116;47.660;9.126;2023-02-08T04:43:41;10.15;;;7.55;;
34403;SDS011;23116;47.660;9.126;2023-02-08T04:46:28;8.77;;;6.97;;
34403;SDS011;23116;47.660;9.126;2023-02-08T04:49:15;11.85;;;7.75;;
34403;SDS011;23116;47.660;9.126;2023-02-08T04:52:02;11.02;;;7.97;;
34403;SDS011;23116;47.660;9.126;2023-02-08T04:54:49;9.32;;;6.97;;
34403;SDS011;23116;47.660;9.126;2023-02-08T04:57:35;11.10;;;7.50;;
34403;SDS011;23116;47.660;9.126;2023-02-08T05:00:22;9.35;;;7.28;;
34403;SDS011;23116;47.660;9.126;2023-02-08T05:03:09;8.93;;;6.88;;
34403;SDS011;23116;47.660;9.126;2023-02-08T05:05:57;10.55;;;6.72;;
34403;SDS011;23116;47.660;9.126;2023-02-08T05:08:44;8.15;;;6.70;;
34403;SDS011;23116;47.660;9.126;2023-02-08T05:11:31;7.55;;;5.55;;
34403;SDS011;23116;47.660;9.126;2023-02-08T05:14:18;8.80;;;6.32;;
34403;SDS011;23116;47.660;9.126;2023-02-08T05:17:05;11.38;;;7.35;;
34403;SDS011;23116;47.660;9.126;2023-02-08T05:19:52;7.63;;;6.07;;
34403;SDS011;23116;47.660;9.126;2023-02-08T05:22:38;8.32;;;5.90;;
34403;SDS011;23116;47.660;9.126;2023-02-08T05:25:25;7.13;;;5.10;;
34403;SDS011;23116;47.660;9.126;2023-02-08T05:28:12;7.70;;;5.85;;
34403;SDS011;23116;47.660;9.126;2023-02-08T05:31:07;10.65;;;6.60;;
34403;SDS011;23116;47.660;9.126;2023-02-08T05:34:01;8.57;;;5.88;;
34403;SDS011;23116;47.660;9.126;2023-02-08T05:36:48;9.68;;;6.65;;
34403;SDS011;23116;47.660;9.126;2023-02-08T05:39:35;10.68;;;6.28;;
34403;SDS011;23116;47.660;9.126;2023-02-08T05:42:22;10.20;;;6.88;;
34403;SDS011;23116;47.660;9.126;2023-02-08T05:45:08;11.70;;;7.45;;
34403;SDS011;23116;47.660;9.126;2023-02-08T05:47:55;8.77;;;6.65;;
34403;SDS011;23116;47.660;9.126;2023-02-08T05:50:42;11.50;;;7.72;;
34403;SDS011;23116;47.660;9.126;2023-02-08T05:53:29;10.02;;;7.38;;
34403;SDS011;23116;47.660;9.126;2023-02-08T05:56:16;11.73;;;7.72;;
34403;SDS011;23116;47.660;9.126;2023-02-08T05:59:03;8.35;;;7.13;;
34403;SDS011;23116;47.660;9.126;2023-02-08T06:01:49;11.32;;;7.13;;
34403;SDS011;23116;47.660;9.126;2023-02-08T06:04:36;10.88;;;8.57;;
34403;SDS011;23116;47.660;9.126;2023-02-08T06:07:23;9.75;;;6.43;;
34403;SDS011;23116;47.660;9.126;2023-02-08T06:10:10;9.00;;;6.15;;
34403;SDS011;23116;47.660;9.126;2023-02-08T06:12:57;8.98;;;6.10;;
34403;SDS011;23116;47.660;9.126;2023-02-08T06:15:44;8.88;;;6.38;;
34403;SDS011;23116;47.660;9.126;2023-02-08T06:18:31;9.73;;;7.50;;
34403;SDS011;23116;47.660;9.126;2023-02-08T06:21:18;9.23;;;7.18;;
34403;SDS011;23116;47.660;9.126;2023-02-08T06:24:05;10.98;;;6.78;;
34403;SDS011;23116;47.660;9.126;2023-02-08T06:26:52;9.65;;;6.60;;
34403;SDS011;23116;47.660;9.126;2023-02-08T06:29:39;9.15;;;7.18;;
34403;SDS011;23116;47.660;9.126;2023-02-08T06:32:26;8.85;;;6.40;;
34403;SDS011;23116;47.660;9.126;2023-02-08T06:35:13;8.98;;;6.40;;
34403;SDS011;23116;47.660;9.126;2023-02-08T06:38:00;8.43;;;5.63;;
34403;SDS011;23116;47.660;9.126;2023-02-08T06:40:47;11.02;;;6.85;;
34403;SDS011;23116;47.660;9.126;2023-02-08T06:43:34;8.73;;;6.53;;
34403;SDS011;23116;47.660;9.126;2023-02-08T06:46:21;10.00;;;6.45;;
34403;SDS011;23116;47.660;9.126;2023-02-08T06:49:09;9.07;;;6.70;;
34403;SDS011;23116;47.660;9.126;2023-02-08T06:51:56;9.77;;;6.60;;
34403;SDS011;23116;47.660;9.126;2023-02-08T06:54:43;8.88;;;6.60;;
34403;SDS011;23116;47.660;9.126;2023-02-08T06:57:30;9.60;;;6.30;;
34403;SDS011;23116;47.660;9.126;2023-02-08T07:00:17;7.65;;;5.63;;
34403;SDS011;23116;47.660;9.126;2023-02-08T07:03:04;9.80;;;6.65;;
34403;SDS011;23116;47.660;9.126;2023-02-08T07:05:51;7.97;;;6.00;;
34403;SDS011;23116;47.660;9.126;2023-02-08T07:08:38;7.35;;;5.47;;
34403;SDS011;23116;47.660;9.126;2023-02-08T07:11:25;8.20;;;5.85;;
34403;SDS011;23116;47.660;9.126;2023-02-08T07:14:12;6.22;;;4.50;;
34403;SDS011;23116;47.660;9.126;2023-02-08T07:17:00;7.50;;;5.20;;
34403;SDS011;23116;47.660;9.126;2023-02-08T07:19:47;7.65;;;4.72;;
34403;SDS011;23116;47.660;9.126;2023-02-08T07:22:34;7.20;;;5.57;;
34403;SDS011;23116;47.660;9.126;2023-02-08T07:25:20;7.50;;;5.93;;
34403;SDS011;23116;47.660;9.126;2023-02-08T07:28:07;7.00;;;5.22;;
34403;SDS011;23116;47.660;9.126;2023-02-08T07:30:54;8.88;;;5.40;;
34403;SDS011;23116;47.660;9.126;2023-02-08T07:33:41;6.60;;;5.22;;
34403;SDS011;23116;47.660;9.126;2023-02-08T07:36:28;10.52;;;6.00;;
34403;SDS011;23116;47.660;9.126;2023-02-08T07:39:15;8.77;;;6.30;;
34403;SDS011;23116;47.660;9.126;2023-02-08T07:42:02;10.57;;;6.97;;
34403;SDS011;23116;47.660;9.126;2023-02-08T07:44:51;9.00;;;6.65;;
34403;SDS011;23116;47.660;9.126;2023-02-08T07:47:37;8.60;;;6.82;;
34403;SDS011;23116;47.660;9.126;2023-02-08T07:50:24;10.35;;;7.22;;
34403;SDS011;23116;47.660;9.126;2023-02-08T07:53:11;8.65;;;6.13;;
34403;SDS011;23116;47.660;9.126;2023-02-08T07:55:58;8.98;;;6.63;;
34403;SDS011;23116;47.660;9.126;2023-02-08T07:58:44;9.52;;;5.72;;
34403;SDS011;23116;47.660;9.126;2023-02-08T08:01:31;8.57;;;6.35;;
34403;SDS011;23116;47.660;9.126;2023-02-08T08:04:18;8.90;;;6.63;;
34403;SDS011;23116;47.660;9.126;2023-02-08T08:07:06;7.32;;;6.07;;
34403;SDS011;23116;47.660;9.126;2023-02-08T08:09:53;8.70;;;6.13;;
34403;SDS011;23116;47.660;9.126;2023-02-08T08:12:39;9.27;;;6.65;;
34403;SDS011;23116;47.660;9.126;2023-02-08T08:15:26;9.85;;;6.38;;
34403;SDS011;23116;47.660;9.126;2023-02-08T08:18:13;8.27;;;5.60;;
34403;SDS011;23116;47.660;9.126;2023-02-08T08:21:00;8.57;;;6.45;;
34403;SDS011;23116;47.660;9.126;2023-02-08T08:23:48;9.13;;;6.00;;
34403;SDS011;23116;47.660;9.126;2023-02-08T08:26:35;9.63;;;6.78;;
34403;SDS011;23116;47.660;9.126;2023-02-08T08:29:22;8.80;;;6.22;;
34403;SDS011;23116;47.660;9.126;2023-02-08T08:32:09;8.77;;;5.65;;
34403;SDS011;23116;47.660;9.126;2023-02-08T08:34:56;8.80;;;5.93;;
34403;SDS011;23116;47.660;9.126;2023-02-08T08:37:43;6.78;;;5.18;;
34403;SDS011;23116;47.660;9.126;2023-02-08T08:40:30;7.88;;;6.07;;
34403;SDS011;23116;47.660;9.126;2023-02-08T08:43:17;9.13;;;6.80;;
34403;SDS011;23116;47.660;9.126;2023-02-08T08:46:04;11.02;;;6.47;;
34403;SDS011;23116;47.660;9.126;2023-02-08T08:48:52;10.38;;;6.40;;
34403;SDS011;23116;47.660;9.126;2023-02-08T08:51:39;7.05;;;5.70;;
34403;SDS011;23116;47.660;9.126;2023-02-08T08:54:26;7.78;;;5.60;;
34403;SDS011;23116;47.660;9.126;2023-02-08T08:57:13;8.15;;;6.00;;
34403;SDS011;23116;47.660;9.126;2023-02-08T09:00:00;10.18;;;6.72;;
34403;SDS011;23116;47.660;9.126;2023-02-08T09:02:48;8.90;;;6.80;;
34403;SDS011;23116;47.660;9.126;2023-02-08T09:05:35;10.90;;;7.85;;
34403;SDS011;23116;47.660;9.126;2023-02-08T09:08:22;11.57;;;7.63;;
34403;SDS011;23116;47.660;9.126;2023-02-08T09:11:10;12.88;;;9.43;;
34403;SDS011;23116;47.660;9.126;2023-02-08T09:14:02;10.45;;;7.45;;
34403;SDS011;23116;47.660;9.126;2023-02-08T09:16:49;9.68;;;7.35;;
34403;SDS011;23116;47.660;9.126;2023-02-08T09:19:37;10.45;;;8.13;;
34403;SDS011;23116;47.660;9.126;2023-02-08T09:22:24;9.77;;;7.90;;
34403;SDS011;23116;47.660;9.126;2023-02-08T09:25:10;10.05;;;7.72;;
34403;SDS011;23116;47.660;9.126;2023-02-08T09:27:57;11.05;;;7.55;;
34403;SDS011;23116;47.660;9.126;2023-02-08T09:30:44;8.70;;;6.72;;
34403;SDS011;23116;47.660;9.126;2023-02-08T09:33:31;9.68;;;7.60;;
34403;SDS011;23116;47.660;9.126;2023-02-08T09:36:18;12.00;;;8.30;;
34403;SDS011;23116;47.660;9.126;2023-02-08T09:39:11;9.55;;;7.60;;
34403;SDS011;23116;47.660;9.126;2023-02-08T09:42:24;9.30;;;6.80;;
34403;SDS011;23116;47.660;9.126;2023-02-08T09:45:48;8.55;;;6.32;;
34403;SDS011;23116;47.660;9.126;2023-02-08T09:48:49;10.02;;;6.43;;
34403;SDS011;23116;47.660;9.126;2023-02-08T09:54:42;7.93;;;6.07;;
34403;SDS011;23116;47.660;9.126;2023-02-08T09:57:38;9.43;;;6.78;;
34403;SDS011;23116;47.660;9.126;2023-02-08T10:00:41;9.13;;;7.13;;
34403;SDS011;23116;47.660;9.126;2023-02-08T10:06:28;10.55;;;7.82;;
34403;SDS011;23116;47.660;9.126;2023-02-08T10:09:17;9.77;;;6.82;;
34403;SDS011;23116;47.660;9.126;2023-02-08T10:12:15;10.80;;;7.20;;
34403;SDS011;23116;47.660;9.126;2023-02-08T10:15:47;9.43;;;7.50;;
34403;SDS011;23116;47.660;9.126;2023-02-08T10:21:45;8.98;;;6.88;;
34403;SDS011;23116;47.660;9.126;2023-02-08T10:25:05;10.60;;;8.15;;
34403;SDS011;23116;47.660;9.126;2023-02-08T10:37:57;11.20;;;8.68;;
34403;SDS011;23116;47.660;9.126;2023-02-08T10:40:54;12.00;;;9.18;;
34403;SDS011;23116;47.660;9.126;2023-02-08T10:43:45;12.38;;;7.78;;
34403;SDS011;23116;47.660;9.126;2023-02-08T10:47:49;11.18;;;9.10;;
34403;SDS011;23116;47.660;9.126;2023-02-08T10:50:38;12.15;;;9.00;;
34403;SDS011;23116;47.660;9.126;2023-02-08T10:53:27;12.75;;;9.25;;
34403;SDS011;23116;47.660;9.126;2023-02-08T10:59:32;11.90;;;9.00;;
34403;SDS011;23116;47.660;9.126;2023-02-08T11:02:38;10.55;;;8.23;;
34403;SDS011;23116;47.660;9.126;2023-02-08T11:05:34;10.68;;;8.25;;
34403;SDS011;23116;47.660;9.126;2023-02-08T11:08:23;12.63;;;9.77;;
34403;SDS011;23116;47.660;9.126;2023-02-08T11:11:12;9.38;;;7.80;;
34403;SDS011;23116;47.660;9.126;2023-02-08T11:14:12;12.65;;;8.48;;
34403;SDS011;23116;47.660;9.126;2023-02-08T11:17:28;9.13;;;7.55;;
34403;SDS011;23116;47.660;9.126;2023-02-08T11:20:21;11.38;;;8.00;;
34403;SDS011;23116;47.660;9.126;2023-02-08T11:23:20;14.00;;;8.25;;
34403;SDS011;23116;47.660;9.126;2023-02-08T11:26:15;9.40;;;7.65;;
34403;SDS011;23116;47.660;9.126;2023-02-08T11:29:16;10.27;;;8.35;;
34403;SDS011;23116;47.660;9.126;2023-02-08T11:32:15;11.55;;;8.80;;
34403;SDS011;23116;47.660;9.126;2023-02-08T11:35:25;11.32;;;8.95;;
34403;SDS011;23116;47.660;9.126;2023-02-08T11:38:16;12.40;;;9.23;;
34403;SDS011;23116;47.660;9.126;2023-02-08T11:41:04;10.95;;;8.57;;
34403;SDS011;23116;47.660;9.126;2023-02-08T11:44:04;11.15;;;8.38;;
34403;SDS011;23116;47.660;9.126;2023-02-08T11:46:52;10.43;;;7.65;;
34403;SDS011;23116;47.660;9.126;2023-02-08T11:49:41;10.48;;;8.63;;
34403;SDS011;23116;47.660;9.126;2023-02-08T11:52:36;8.32;;;7.22;;
34403;SDS011;23116;47.660;9.126;2023-02-08T11:55:27;9.43;;;7.20;;
34403;SDS011;23116;47.660;9.126;2023-02-08T11:58:18;9.98;;;7.22;;
34403;SDS011;23116;47.660;9.126;2023-02-08T12:01:19;11.77;;;9.07;;
34403;SDS011;23116;47.660;9.126;2023-02-08T12:04:10;9.98;;;7.65;;
34403;SDS011;23116;47.660;9.126;2023-02-08T12:07:17;9.98;;;8.02;;
34403;SDS011;23116;47.660;9.126;2023-02-08T12:13:53;10.07;;;7.38;;
34403;SDS011;23116;47.660;9.126;2023-02-08T12:17:21;11.40;;;8.10;;
34403;SDS011;23116;47.660;9.126;2023-02-08T12:20:50;9.63;;;7.03;;
34403;SDS011;23116;47.660;9.126;2023-02-08T12:23:55;14.27;;;8.77;;
34403;SDS011;23116;47.660;9.126;2023-02-08T12:30:43;10.45;;;8.65;;
34403;SDS011;23116;47.660;9.126;2023-02-08T12:34:11;10.15;;;7.68;;
34403;SDS011;23116;47.660;9.126;2023-02-08T12:37:12;9.77;;;6.72;;
34403;SDS011;23116;47.660;9.126;2023-02-08T12:50:50;8.27;;;6.70;;
34403;SDS011;23116;47.660;9.126;2023-02-08T12:53:49;9.32;;;7.00;;
34403;SDS011;23116;47.660;9.126;2023-02-08T12:57:02;9.88;;;8.38;;
34403;SDS011;23116;47.660;9.126;2023-02-08T12:59:56;9.98;;;7.57;;
34403;SDS011;23116;47.660;9.126;2023-02-08T13:06:01;10.65;;;8.70;;
34403;SDS011;23116;47.660;9.126;2023-02-08T13:08:59;8.98;;;6.68;;
34403;SDS011;23116;47.660;9.126;2023-02-08T13:12:44;9.10;;;7.50;;
34403;SDS011;23116;47.660;9.126;2023-02-08T13:15:28;8.45;;;6.32;;
34403;SDS011;23116;47.660;9.126;2023-02-08T13:18:41;7.75;;;6.53;;
34403;SDS011;23116;47.660;9.126;2023-02-08T13:21:34;9.50;;;7.43;;
34403;SDS011;23116;47.660;9.126;2023-02-08T13:24:34;8.35;;;6.53;;
34403;SDS011;23116;47.660;9.126;2023-02-08T13:27:30;7.97;;;6.68;;
34403;SDS011;23116;47.660;9.126;2023-02-08T13:30:18;9.73;;;6.53;;
34403;SDS011;23116;47.660;9.126;2023-02-08T13:33:16;7.13;;;6.35;;
34403;SDS011;23116;47.660;9.126;2023-02-08T13:43:02;7.45;;;5.57;;
34403;SDS011;23116;47.660;9.126;2023-02-08T13:45:54;8.98;;;6.78;;
34403;SDS011;23116;47.660;9.126;2023-02-08T13:48:48;8.13;;;6.93;;
34403;SDS011;23116;47.660;9.126;2023-02-08T13:51:50;7.35;;;6.15;;
34403;SDS011;23116;47.660;9.126;2023-02-08T13:54:38;10.02;;;7.35;;
34403;SDS011;23116;47.660;9.126;2023-02-08T14:03:40;8.52;;;6.82;;
34403;SDS011;23116;47.660;9.126;2023-02-08T14:06:27;7.82;;;6.55;;
34403;SDS011;23116;47.660;9.126;2023-02-08T14:09:27;7.65;;;6.35;;
34403;SDS011;23116;47.660;9.126;2023-02-08T14:15:38;7.70;;;6.38;;
34403;SDS011;23116;47.660;9.126;2023-02-08T14:18:26;7.10;;;5.43;;
34403;SDS011;23116;47.660;9.126;2023-02-08T14:21:28;8.48;;;6.55;;
34403;SDS011;23116;47.660;9.126;2023-02-08T14:24:23;7.72;;;6.50;;
34403;SDS011;23116;47.660;9.126;2023-02-08T14:27:31;8.55;;;6.68;;
34403;SDS011;23116;47.660;9.126;2023-02-08T14:30:30;8.30;;;5.68;;
34403;SDS011;23116;47.660;9.126;2023-02-08T14:33:25;7.82;;;6.68;;
34403;SDS011;23116;47.660;9.126;2023-02-08T14:36:28;8.70;;;6.70;;
34403;SDS011;23116;47.660;9.126;2023-02-08T14:39:29;10.30;;;6.63;;
34403;SDS011;23116;47.660;9.126;2023-02-08T14:45:37;8.82;;;7.00;;
34403;SDS011;23116;47.660;9.126;2023-02-08T14:48:26;10.25;;;6.85;;
34403;SDS011;23116;47.660;9.126;2023-02-08T14:51:58;8.50;;;6.60;;
34403;SDS011;23116;47.660;9.126;2023-02-08T14:55:12;7.77;;;6.00;;
34403;SDS011;23116;47.660;9.126;2023-02-08T14:58:05;8.52;;;6.13;;
34403;SDS011;23116;47.660;9.126;2023-02-08T15:00:59;7.18;;;6.15;;
34403;SDS011;23116;47.660;9.126;2023-02-08T15:03:52;10.85;;;7.85;;
34403;SDS011;23116;47.660;9.126;2023-02-08T15:10:04;10.27;;;7.93;;
34403;SDS011;23116;47.660;9.126;2023-02-08T15:12:58;9.70;;;8.18;;
34403;SDS011;23116;47.660;9.126;2023-02-08T15:15:54;10.05;;;7.72;;
34403;SDS011;23116;47.660;9.126;2023-02-08T15:18:44;10.30;;;8.68;;
34403;SDS011;23116;47.660;9.126;2023-02-08T15:21:32;11.15;;;8.10;;
34403;SDS011;23116;47.660;9.126;2023-02-08T15:24:22;8.70;;;6.95;;
34403;SDS011;23116;47.660;9.126;2023-02-08T15:27:32;8.80;;;7.07;;
34403;SDS011;23116;47.660;9.126;2023-02-08T15:30:23;10.93;;;9.05;;
34403;SDS011;23116;47.660;9.126;2023-02-08T15:33:19;11.23;;;8.35;;
34403;SDS011;23116;47.660;9.126;2023-02-08T15:36:07;9.40;;;7.97;;
34403;SDS011;23116;47.660;9.126;2023-02-08T15:39:11;9.70;;;7.47;;
34403;SDS011;23116;47.660;9.126;2023-02-08T15:42:34;12.30;;;8.60;;
34403;SDS011;23116;47.660;9.126;2023-02-08T15:45:27;12.48;;;9.48;;
34403;SDS011;23116;47.660;9.126;2023-02-08T15:48:16;13.50;;;8.30;;
34403;SDS011;23116;47.660;9.126;2023-02-08T15:51:03;11.63;;;8.52;;
34403;SDS011;23116;47.660;9.126;2023-02-08T15:53:53;12.00;;;8.93;;
34403;SDS011;23116;47.660;9.126;2023-02-08T15:56:41;10.32;;;7.95;;
34403;SDS011;23116;47.660;9.126;2023-02-08T16:00:10;9.95;;;7.40;;
34403;SDS011;23116;47.660;9.126;2023-02-08T16:03:01;11.00;;;8.70;;
34403;SDS011;23116;47.660;9.126;2023-02-08T16:06:00;10.73;;;8.82;;
34403;SDS011;23116;47.660;9.126;2023-02-08T16:08:50;8.93;;;6.60;;
34403;SDS011;23116;47.660;9.126;2023-02-08T16:11:41;9.15;;;8.15;;
34403;SDS011;23116;47.660;9.126;2023-02-08T16:14:34;9.07;;;8.10;;
34403;SDS011;23116;47.660;9.126;2023-02-08T16:17:34;9.80;;;7.35;;
34403;SDS011;23116;47.660;9.126;2023-02-08T16:20:31;10.68;;;8.30;;
34403;SDS011;23116;47.660;9.126;2023-02-08T16:23:30;10.38;;;7.63;;
34403;SDS011;23116;47.660;9.126;2023-02-08T16:26:26;10.90;;;8.10;;
34403;SDS011;23116;47.660;9.126;2023-02-08T16:29:40;12.18;;;7.40;;
34403;SDS011;23116;47.660;9.126;2023-02-08T16:32:35;11.60;;;8.25;;
34403;SDS011;23116;47.660;9.126;2023-02-08T16:35:25;12.70;;;8.40;;
34403;SDS011;23116;47.660;9.126;2023-02-08T16:38:20;11.43;;;8.00;;
34403;SDS011;23116;47.660;9.126;2023-02-08T16:41:08;10.30;;;7.95;;
34403;SDS011;23116;47.660;9.126;2023-02-08T16:44:13;11.30;;;7.97;;
34403;SDS011;23116;47.660;9.126;2023-02-08T16:47:23;12.45;;;9.30;;
34403;SDS011;23116;47.660;9.126;2023-02-08T16:50:25;12.32;;;9.55;;
34403;SDS011;23116;47.660;9.126;2023-02-08T16:53:13;15.02;;;10.05;;
34403;SDS011;23116;47.660;9.126;2023-02-08T16:56:00;13.98;;;9.95;;
34403;SDS011;23116;47.660;9.126;2023-02-08T16:58:47;13.05;;;10.02;;
34403;SDS011;23116;47.660;9.126;2023-02-08T17:01:35;13.45;;;9.60;;
34403;SDS011;23116;47.660;9.126;2023-02-08T17:04:23;10.85;;;8.48;;
34403;SDS011;23116;47.660;9.126;2023-02-08T17:07:11;10.38;;;9.00;;
34403;SDS011;23116;47.660;9.126;2023-02-08T17:10:05;10.85;;;7.50;;
34403;SDS011;23116;47.660;9.126;2023-02-08T17:13:00;11.18;;;8.07;;
34403;SDS011;23116;47.660;9.126;2023-02-08T17:15:48;10.15;;;7.28;;
34403;SDS011;23116;47.660;9.126;2023-02-08T17:18:36;8.90;;;7.22;;
34403;SDS011;23116;47.660;9.126;2023-02-08T17:21:23;12.23;;;7.78;;
34403;SDS011;23116;47.660;9.126;2023-02-08T17:24:10;9.98;;;8.00;;
34403;SDS011;23116;47.660;9.126;2023-02-08T17:27:01;11.98;;;8.70;;
34403;SDS011;23116;47.660;9.126;2023-02-08T17:29:49;11.70;;;7.93;;
34403;SDS011;23116;47.660;9.126;2023-02-08T17:32:36;16.90;;;12.20;;
34403;SDS011;23116;47.660;9.126;2023-02-08T17:35:25;18.48;;;12.50;;
34403;SDS011;23116;47.660;9.126;2023-02-08T17:38:13;12.70;;;9.60;;
34403;SDS011;23116;47.660;9.126;2023-02-08T17:41:01;16.35;;;10.60;;
34403;SDS011;23116;47.660;9.126;2023-02-08T17:43:57;14.55;;;10.43;;
34403;SDS011;23116;47.660;9.126;2023-02-08T17:46:47;14.57;;;10.93;;
34403;SDS011;23116;47.660;9.126;2023-02-08T17:49:34;14.13;;;10.30;;
34403;SDS011;23116;47.660;9.126;2023-02-08T17:52:21;14.13;;;10.65;;
34403;SDS011;23116;47.660;9.126;2023-02-08T17:55:10;13.65;;;9.23;;
34403;SDS011;23116;47.660;9.126;2023-02-08T17:57:58;12.95;;;10.27;;
34403;SDS011;23116;47.660;9.126;2023-02-08T18:00:45;13.80;;;10.60;;
34403;SDS011;23116;47.660;9.126;2023-02-08T18:03:32;16.45;;;10.88;;
34403;SDS011;23116;47.660;9.126;2023-02-08T18:06:19;15.10;;;11.02;;
34403;SDS011;23116;47.660;9.126;2023-02-08T18:09:08;16.13;;;10.70;;
34403;SDS011;23116;47.660;9.126;2023-02-08T18:11:55;16.08;;;11.35;;
34403;SDS011;23116;47.660;9.126;2023-02-08T18:14:42;15.65;;;10.70;;
34403;SDS011;23116;47.660;9.126;2023-02-08T18:17:29;13.77;;;10.85;;
34403;SDS011;23116;47.660;9.126;2023-02-08T18:20:16;14.35;;;11.35;;
34403;SDS011;23116;47.660;9.126;2023-02-08T18:23:04;15.55;;;11.70;;
34403;SDS011;23116;47.660;9.126;2023-02-08T18:25:50;11.70;;;9.13;;
34403;SDS011;23116;47.660;9.126;2023-02-08T18:28:46;15.48;;;11.20;;
34403;SDS011;23116;47.660;9.126;2023-02-08T18:31:34;15.43;;;11.80;;
34403;SDS011;23116;47.660;9.126;2023-02-08T18:34:22;13.07;;;9.30;;
34403;SDS011;23116;47.660;9.126;2023-02-08T18:37:08;10.63;;;7.93;;
34403;SDS011;23116;47.660;9.126;2023-02-08T18:39:55;12.10;;;8.10;;
34403;SDS011;23116;47.660;9.126;2023-02-08T18:42:42;9.82;;;7.47;;
34403;SDS011;23116;47.660;9.126;2023-02-08T18:45:29;13.23;;;9.82;;
34403;SDS011;23116;47.660;9.126;2023-02-08T18:48:16;13.85;;;10.55;;
34403;SDS011;23116;47.660;9.126;2023-02-08T18:51:03;13.85;;;10.43;;
34403;SDS011;23116;47.660;9.126;2023-02-08T18:53:53;12.90;;;9.73;;
34403;SDS011;23116;47.660;9.126;2023-02-08T18:56:40;13.85;;;9.75;;
34403;SDS011;23116;47.660;9.126;2023-02-08T18:59:28;12.13;;;8.93;;
34403;SDS011;23116;47.660;9.126;2023-02-08T19:02:16;15.85;;;12.25;;
34403;SDS011;23116;47.660;9.126;2023-02-08T19:05:05;14.38;;;10.98;;